Time;durP1;ratioP1;P1;durP2;ratioP2;P2;SDS_P1;SDS_P2;PMS_P1;PMS_P2;Temp;Humidity;BMP_temperature;BMP_pressure;BME280_temperature;BME280_humidity;BME280_pressure;Samples;Min_cycle;Max_cycle;Signal;HPM_P1;HPM_P2
2022/01/13 00:01:41;;;;;;;;;;;2.10;99.90;;;;;;4975712;28;19930;-78
2022/01/13 00:04:09;;;;;;;;;;;2.10;99.90;;;;;;4978802;28;19982;-79
2022/01/13 00:06:37;;;;;;;;;;;2.10;99.90;;;;;;4979657;28;19968;-78
2022/01/13 00:09:04;;;;;;;;;;;2.10;99.90;;;;;;4979096;28;20436;-78
2022/01/13 00:11:31;;;;;;;;;;;2.00;99.90;;;;;;4977577;28;20030;-78
2022/01/13 00:14:22;;;;;;;;;;;2.00;99.90;;;;;;4978336;28;19926;-78
2022/01/13 00:17:09;;;;;;;;;;;2.00;99.90;;;;;;4994657;28;20401;-77
2022/01/13 00:19:48;;;;;;;;;;;2.00;99.90;;;;;;4976893;28;20361;-78
2022/01/13 00:22:24;;;;;;;;;;;2.10;99.90;;;;;;4975437;28;19926;-78
2022/01/13 00:24:54;;;;;;;;;;;2.10;99.90;;;;;;4965347;28;19933;-77
2022/01/13 00:27:23;;;;;;;;;;;2.00;99.90;;;;;;4970170;28;19941;-76
2022/01/13 00:29:50;;;;;;;;;;;2.00;99.90;;;;;;4968117;28;20025;-76
2022/01/13 00:32:19;;;;;;;;;;;2.00;99.90;;;;;;4968342;28;19973;-77
2022/01/13 00:34:46;;;;;;;;;;;2.10;99.90;;;;;;4970775;28;20466;-77
2022/01/13 00:37:13;;;;;;;;;;;2.00;99.90;;;;;;4975681;28;19927;-77
2022/01/13 00:39:41;;;;;;;;;;;2.00;99.90;;;;;;4977533;28;19997;-77
2022/01/13 00:42:08;;;;;;;;;;;1.90;99.90;;;;;;4976793;28;19934;-77
2022/01/13 00:44:37;;;;;;;;;;;1.90;99.90;;;;;;4969786;28;19926;-77
2022/01/13 00:47:07;;;;;;;;;;;1.90;99.90;;;;;;4980851;28;20392;-76
2022/01/13 00:49:34;;;;;;;;;;;1.90;99.90;;;;;;4973226;28;19980;-76
2022/01/13 00:52:00;;;;;;;;;;;1.90;99.90;;;;;;4962628;28;19972;-77
2022/01/13 00:54:27;;;;;;;;;;;2.00;99.90;;;;;;4993336;28;19968;-77
2022/01/13 00:56:55;;;;;;;;;;;1.90;99.90;;;;;;4968791;28;19927;-77
2022/01/13 00:59:22;;;;;;;;;;;1.90;99.90;;;;;;4966964;28;19933;-77
2022/01/13 01:01:50;;;;;;;;;;;1.90;99.90;;;;;;4970554;28;19927;-76
2022/01/13 01:04:17;;;;;;;;;;;1.90;99.90;;;;;;4972042;28;19926;-76
2022/01/13 01:06:44;;;;;;;;;;;1.90;99.90;;;;;;4971401;28;19936;-76
2022/01/13 01:09:15;;;;;;;;;;;1.90;99.90;;;;;;4973263;28;19930;-76
2022/01/13 01:11:43;;;;;;;;;;;1.90;99.90;;;;;;4973488;28;19936;-76
2022/01/13 01:14:13;;;;;;;;;;;1.90;99.90;;;;;;4960080;28;20407;-77
2022/01/13 01:16:40;;;;;;;;;;;1.90;99.90;;;;;;4968079;28;19934;-78
2022/01/13 01:19:08;;;;;;;;;;;2.00;99.90;;;;;;4968421;28;19977;-78
2022/01/13 01:21:52;;;;;;;;;;;1.90;99.90;;;;;;4989094;28;19926;-76
2022/01/13 01:24:56;;;;;;;;;;;1.90;99.90;;;;;;4974716;28;19934;-77
2022/01/13 01:27:26;;;;;;;;;;;2.00;99.90;;;;;;4983239;28;19927;-77
2022/01/13 01:29:59;;;;;;;;;;;2.00;99.90;;;;;;4976072;28;19932;-78
2022/01/13 01:32:26;;;;;;;;;;;2.00;99.90;;;;;;4971799;28;19926;-78
2022/01/13 01:34:58;;;;;;;;;;;2.00;99.90;;;;;;4977053;28;19987;-79
2022/01/13 01:37:26;;;;;;;;;;;2.00;99.90;;;;;;4977967;28;19980;-78
2022/01/13 01:39:54;;;;;;;;;;;2.00;99.90;;;;;;4974422;28;21063;-77
2022/01/13 01:42:21;;;;;;;;;;;2.00;99.90;;;;;;4976208;28;19970;-79
2022/01/13 01:44:50;;;;;;;;;;;2.00;99.90;;;;;;4970326;28;20355;-78
2022/01/13 01:47:18;;;;;;;;;;;1.90;99.90;;;;;;4991424;28;19986;-77
2022/01/13 01:49:48;;;;;;;;;;;2.00;99.90;;;;;;4973816;28;19933;-77
2022/01/13 01:52:16;;;;;;;;;;;2.00;99.90;;;;;;4972118;28;19927;-78
2022/01/13 01:54:43;;;;;;;;;;;2.00;99.90;;;;;;5039561;28;20013;-78
2022/01/13 01:57:10;;;;;;;;;;;2.00;99.90;;;;;;5014849;28;19924;-78
2022/01/13 01:59:40;;;;;;;;;;;2.00;99.90;;;;;;4971916;28;20017;-77
2022/01/13 02:02:07;;;;;;;;;;;1.90;99.90;;;;;;4959176;28;19988;-78
2022/01/13 02:04:36;;;;;;;;;;;1.90;99.90;;;;;;4972094;28;19926;-77
2022/01/13 02:07:07;;;;;;;;;;;1.90;99.90;;;;;;4973049;28;19926;-78
2022/01/13 02:09:35;;;;;;;;;;;1.90;99.90;;;;;;4972116;28;19926;-77
2022/01/13 02:12:06;;;;;;;;;;;1.90;99.90;;;;;;4970247;28;19965;-77
2022/01/13 02:14:36;;;;;;;;;;;1.80;99.90;;;;;;4971995;28;19933;-76
2022/01/13 02:17:08;;;;;;;;;;;1.80;99.90;;;;;;4971361;28;19930;-76
2022/01/13 02:19:38;;;;;;;;;;;1.80;99.90;;;;;;4977962;28;19926;-76
2022/01/13 02:22:06;;;;;;;;;;;1.70;99.90;;;;;;5042979;28;19960;-76
2022/01/13 02:24:33;;;;;;;;;;;1.70;99.90;;;;;;4974398;28;20395;-76
2022/01/13 02:26:59;;;;;;;;;;;1.70;99.90;;;;;;4970186;28;20013;-76
2022/01/13 02:29:26;;;;;;;;;;;1.70;99.90;;;;;;4972561;28;19936;-76
2022/01/13 02:31:53;;;;;;;;;;;1.70;99.90;;;;;;4970536;28;19932;-75
2022/01/13 02:34:20;;;;;;;;;;;1.70;99.90;;;;;;4974283;28;19968;-76
2022/01/13 02:36:49;;;;;;;;;;;1.70;99.90;;;;;;4971689;28;19926;-76
2022/01/13 02:39:17;;;;;;;;;;;1.70;99.90;;;;;;4954763;28;20017;-77
2022/01/13 02:41:44;;;;;;;;;;;1.60;99.90;;;;;;4968190;28;20014;-76
2022/01/13 02:44:15;;;;;;;;;;;1.60;99.90;;;;;;4956276;28;19941;-76
2022/01/13 02:47:07;;;;;;;;;;;1.60;99.90;;;;;;4967389;28;19926;-76
2022/01/13 02:49:34;;;;;;;;;;;1.60;99.90;;;;;;4969588;28;20377;-77
2022/01/13 02:52:02;;;;;;;;;;;1.60;99.90;;;;;;4968978;28;19933;-76
2022/01/13 02:54:30;;;;;;;;;;;1.60;99.90;;;;;;4973948;28;19926;-76
2022/01/13 02:56:56;;;;;;;;;;;1.60;99.90;;;;;;4972941;28;19926;-77
2022/01/13 02:59:23;;;;;;;;;;;1.60;99.90;;;;;;4973952;28;19934;-76
2022/01/13 03:01:50;;;;;;;;;;;1.60;99.90;;;;;;4967351;28;19973;-78
2022/01/13 03:04:16;;;;;;;;;;;1.60;99.90;;;;;;4995682;28;19926;-78
2022/01/13 03:06:43;;;;;;;;;;;1.60;99.90;;;;;;4981883;28;19933;-78
2022/01/13 03:09:12;;;;;;;;;;;1.70;99.90;;;;;;4973697;28;19969;-78
2022/01/13 03:11:43;;;;;;;;;;;1.70;99.90;;;;;;4975876;28;19976;-78
2022/01/13 03:14:11;;;;;;;;;;;1.60;99.90;;;;;;4973855;28;20377;-78
2022/01/13 03:16:38;;;;;;;;;;;1.70;99.90;;;;;;4975319;28;19934;-78
2022/01/13 03:19:04;;;;;;;;;;;1.60;99.90;;;;;;4975801;28;20411;-78
2022/01/13 03:21:31;;;;;;;;;;;1.60;99.90;;;;;;4968446;28;19976;-79
2022/01/13 03:23:58;;;;;;;;;;;1.60;99.90;;;;;;4978178;28;19926;-78
2022/01/13 03:26:25;;;;;;;;;;;1.50;99.90;;;;;;4963428;28;20001;-78
2022/01/13 03:29:03;;;;;;;;;;;1.50;99.90;;;;;;4990944;28;19924;-78
2022/01/13 03:31:30;;;;;;;;;;;1.40;99.90;;;;;;4991769;28;19930;-78
2022/01/13 03:33:56;;;;;;;;;;;1.40;99.90;;;;;;4975983;28;20013;-78
2022/01/13 03:36:23;;;;;;;;;;;1.40;99.90;;;;;;4973225;28;20397;-78
2022/01/13 03:38:51;;;;;;;;;;;1.40;99.90;;;;;;4972247;28;19933;-78
2022/01/13 03:41:19;;;;;;;;;;;1.30;99.90;;;;;;4969534;28;19953;-78
2022/01/13 03:43:46;;;;;;;;;;;1.40;99.90;;;;;;4959294;28;19926;-78
2022/01/13 03:46:14;;;;;;;;;;;1.40;99.90;;;;;;4970640;28;20011;-78
2022/01/13 03:48:41;;;;;;;;;;;1.40;99.90;;;;;;4973780;28;20393;-78
2022/01/13 03:51:08;;;;;;;;;;;1.40;99.90;;;;;;4964808;28;20380;-78
2022/01/13 03:54:02;;;;;;;;;;;1.40;99.90;;;;;;4958993;28;20397;-79
2022/01/13 03:56:53;;;;;;;;;;;1.30;99.90;;;;;;4970224;28;19924;-78
2022/01/13 03:59:36;;;;;;;;;;;1.40;99.90;;;;;;5026406;28;19929;-79
2022/01/13 04:02:06;;;;;;;;;;;1.40;99.90;;;;;;4959306;28;20389;-79
2022/01/13 04:04:34;;;;;;;;;;;1.40;99.90;;;;;;4989234;28;20337;-78
2022/01/13 04:07:05;;;;;;;;;;;1.40;99.90;;;;;;4977261;28;20009;-78
2022/01/13 04:09:51;;;;;;;;;;;1.50;99.90;;;;;;4974096;28;20001;-79
2022/01/13 04:12:20;;;;;;;;;;;1.40;99.90;;;;;;4960488;28;20088;-78
2022/01/13 04:14:52;;;;;;;;;;;1.40;99.90;;;;;;4978921;28;20335;-78
2022/01/13 04:17:21;;;;;;;;;;;1.30;99.90;;;;;;4974598;28;19998;-78
2022/01/13 04:19:48;;;;;;;;;;;1.30;99.90;;;;;;4973961;28;20432;-75
2022/01/13 04:22:16;;;;;;;;;;;1.20;99.90;;;;;;4972800;28;19926;-76
2022/01/13 04:24:45;;;;;;;;;;;1.20;99.90;;;;;;4972343;28;19926;-75
2022/01/13 04:27:20;;;;;;;;;;;1.20;99.90;;;;;;4962538;28;19926;-75
2022/01/13 04:29:48;;;;;;;;;;;1.30;99.90;;;;;;4969432;28;19934;-75
2022/01/13 04:32:15;;;;;;;;;;;1.30;99.90;;;;;;4971895;28;20037;-75
2022/01/13 04:34:43;;;;;;;;;;;1.40;99.90;;;;;;4972979;28;19926;-75
2022/01/13 04:37:10;;;;;;;;;;;1.30;99.90;;;;;;4973255;28;19936;-75
2022/01/13 04:39:36;;;;;;;;;;;1.30;99.90;;;;;;4974405;28;19926;-75
2022/01/13 04:42:03;;;;;;;;;;;1.20;99.90;;;;;;4972558;28;19968;-75
2022/01/13 04:44:30;;;;;;;;;;;1.20;99.90;;;;;;4976421;28;20013;-75
2022/01/13 04:46:57;;;;;;;;;;;1.20;99.90;;;;;;4961650;28;19957;-76
2022/01/13 04:49:23;;;;;;;;;;;1.20;99.90;;;;;;4974919;28;20013;-76
2022/01/13 04:51:52;;;;;;;;;;;1.30;99.90;;;;;;4974744;28;20029;-76
2022/01/13 04:54:18;;;;;;;;;;;1.20;99.90;;;;;;4973461;28;20411;-75
2022/01/13 04:57:06;;;;;;;;;;;1.30;99.90;;;;;;4974411;28;20346;-76
2022/01/13 04:59:32;;;;;;;;;;;1.30;99.90;;;;;;4966155;28;19927;-76
2022/01/13 05:02:00;;;;;;;;;;;1.30;99.90;;;;;;4973752;28;19965;-76
2022/01/13 05:04:27;;;;;;;;;;;1.30;99.90;;;;;;4972888;28;19934;-75
2022/01/13 05:06:57;;;;;;;;;;;1.30;99.90;;;;;;4974112;28;20001;-76
2022/01/13 05:09:24;;;;;;;;;;;1.30;99.90;;;;;;4967720;28;19927;-74
2022/01/13 05:11:51;;;;;;;;;;;1.20;99.90;;;;;;4965485;28;19930;-75
2022/01/13 05:14:17;;;;;;;;;;;1.30;99.90;;;;;;4971372;28;20017;-75
2022/01/13 05:16:55;;;;;;;;;;;1.30;99.90;;;;;;4969728;28;20021;-75
2022/01/13 05:19:26;;;;;;;;;;;1.30;99.90;;;;;;4971512;28;19933;-75
2022/01/13 05:22:15;;;;;;;;;;;1.30;99.90;;;;;;4958454;28;19979;-75
2022/01/13 05:24:44;;;;;;;;;;;1.30;99.90;;;;;;4970500;28;20017;-75
2022/01/13 05:27:13;;;;;;;;;;;1.30;99.90;;;;;;4964794;28;19932;-75
2022/01/13 05:29:40;;;;;;;;;;;1.40;99.90;;;;;;4964609;28;20392;-75
2022/01/13 05:32:07;;;;;;;;;;;1.40;99.90;;;;;;4975577;28;22085;-75
2022/01/13 05:34:35;;;;;;;;;;;1.40;99.90;;;;;;4972448;28;20156;-75
2022/01/13 05:37:02;;;;;;;;;;;1.40;99.90;;;;;;4969141;28;19933;-75
2022/01/13 05:39:29;;;;;;;;;;;1.40;99.90;;;;;;4969893;28;19926;-75
2022/01/13 05:41:57;;;;;;;;;;;1.40;99.90;;;;;;4969348;28;19926;-74
2022/01/13 05:44:23;;;;;;;;;;;1.40;99.90;;;;;;4969245;28;19933;-75
2022/01/13 05:46:50;;;;;;;;;;;1.40;99.90;;;;;;4965781;28;20347;-75
2022/01/13 05:49:17;;;;;;;;;;;1.40;99.90;;;;;;4970729;28;19957;-75
2022/01/13 05:51:43;;;;;;;;;;;1.40;99.90;;;;;;4970200;28;19932;-75
2022/01/13 05:54:10;;;;;;;;;;;1.40;99.90;;;;;;4970563;28;20286;-74
2022/01/13 05:56:36;;;;;;;;;;;1.30;99.90;;;;;;4994525;28;19925;-74
2022/01/13 05:59:04;;;;;;;;;;;1.30;99.90;;;;;;5027270;28;19931;-74
2022/01/13 06:01:31;;;;;;;;;;;1.30;99.90;;;;;;4967628;28;19926;-74
2022/01/13 06:03:58;;;;;;;;;;;1.30;99.90;;;;;;4956983;28;19924;-75
2022/01/13 06:06:24;;;;;;;;;;;1.30;99.90;;;;;;4971246;28;20328;-74
2022/01/13 06:08:51;;;;;;;;;;;1.30;99.90;;;;;;4970743;28;20381;-74
2022/01/13 06:11:21;;;;;;;;;;;1.30;99.90;;;;;;4969151;28;19927;-74
2022/01/13 06:13:48;;;;;;;;;;;1.40;99.90;;;;;;4968188;28;19926;-75
2022/01/13 06:16:16;;;;;;;;;;;1.40;99.90;;;;;;4966793;28;19932;-75
2022/01/13 06:18:43;;;;;;;;;;;1.40;99.90;;;;;;4970340;28;19951;-75
2022/01/13 06:21:09;;;;;;;;;;;1.40;99.90;;;;;;4969879;28;19926;-75
2022/01/13 06:23:36;;;;;;;;;;;1.40;99.90;;;;;;4951514;28;19926;-75
2022/01/13 06:26:06;;;;;;;;;;;1.30;99.90;;;;;;4962857;28;19932;-75
2022/01/13 06:28:32;;;;;;;;;;;1.30;99.90;;;;;;4971049;28;19926;-74
2022/01/13 06:30:59;;;;;;;;;;;1.30;99.90;;;;;;4967818;28;19926;-76
2022/01/13 06:33:27;;;;;;;;;;;1.20;99.90;;;;;;4973997;28;19930;-75
2022/01/13 06:35:54;;;;;;;;;;;1.10;99.90;;;;;;4970639;28;20991;-75
2022/01/13 06:38:20;;;;;;;;;;;1.10;99.90;;;;;;4962260;28;20468;-75
2022/01/13 06:40:47;;;;;;;;;;;1.10;99.90;;;;;;4964660;28;19941;-75
2022/01/13 06:43:14;;;;;;;;;;;1.10;99.90;;;;;;4976909;28;19926;-75
2022/01/13 06:45:41;;;;;;;;;;;1.10;99.90;;;;;;4967234;28;19929;-75
2022/01/13 06:48:08;;;;;;;;;;;1.10;99.90;;;;;;4963091;28;20439;-75
2022/01/13 06:50:36;;;;;;;;;;;1.10;99.90;;;;;;4955710;28;19972;-76
2022/01/13 06:53:03;;;;;;;;;;;1.10;99.90;;;;;;4958608;28;19927;-75
2022/01/13 06:55:30;;;;;;;;;;;1.10;99.90;;;;;;4967740;28;20380;-74
2022/01/13 06:57:57;;;;;;;;;;;1.10;99.90;;;;;;4958996;28;19935;-75
2022/01/13 07:00:24;;;;;;;;;;;1.10;99.90;;;;;;4960974;28;20060;-75
2022/01/13 07:02:52;;;;;;;;;;;1.20;99.90;;;;;;4961674;28;19946;-75
2022/01/13 07:05:19;;;;;;;;;;;1.20;99.90;;;;;;4961837;28;19934;-75
2022/01/13 07:07:47;;;;;;;;;;;1.20;99.90;;;;;;4962932;28;19968;-74
2022/01/13 07:10:15;;;;;;;;;;;1.20;99.90;;;;;;4960558;28;20369;-74
2022/01/13 07:12:42;;;;;;;;;;;1.20;99.90;;;;;;4955244;28;19927;-75
2022/01/13 07:15:10;;;;;;;;;;;1.20;99.90;;;;;;4960648;28;19980;-76
2022/01/13 07:17:37;;;;;;;;;;;1.10;99.90;;;;;;4961530;28;19927;-74
2022/01/13 07:20:04;;;;;;;;;;;1.00;99.90;;;;;;4962521;28;20009;-76
2022/01/13 07:22:31;;;;;;;;;;;1.10;99.90;;;;;;4970205;28;19930;-74
2022/01/13 07:24:59;;;;;;;;;;;1.10;99.90;;;;;;4968154;28;20021;-76
2022/01/13 07:27:25;;;;;;;;;;;1.20;99.90;;;;;;4963737;28;19932;-77
2022/01/13 07:29:52;;;;;;;;;;;1.20;99.90;;;;;;4960741;28;19927;-75
2022/01/13 07:32:19;;;;;;;;;;;1.10;99.90;;;;;;4953945;28;19930;-76
2022/01/13 07:34:45;;;;;;;;;;;1.20;99.90;;;;;;4961352;28;19934;-75
2022/01/13 07:37:12;;;;;;;;;;;1.20;99.90;;;;;;4970475;28;19926;-75
2022/01/13 07:39:39;;;;;;;;;;;1.20;99.90;;;;;;4971133;28;19986;-76
2022/01/13 07:42:07;;;;;;;;;;;1.20;99.90;;;;;;4960660;28;19934;-76
2022/01/13 07:44:34;;;;;;;;;;;1.30;99.90;;;;;;4960323;28;19992;-76
2022/01/13 07:47:01;;;;;;;;;;;1.20;99.90;;;;;;4967678;28;20016;-76
2022/01/13 07:49:28;;;;;;;;;;;1.20;99.90;;;;;;4958283;28;19933;-75
2022/01/13 07:51:56;;;;;;;;;;;1.20;99.90;;;;;;4961541;28;20339;-75
2022/01/13 07:54:25;;;;;;;;;;;1.20;99.90;;;;;;4957448;28;19926;-77
2022/01/13 07:56:52;;;;;;;;;;;1.10;99.90;;;;;;4962947;28;19926;-76
2022/01/13 07:59:20;;;;;;;;;;;1.10;99.90;;;;;;4963331;28;19994;-75
2022/01/13 08:01:47;;;;;;;;;;;1.10;99.90;;;;;;4963112;28;19926;-75
2022/01/13 08:04:17;;;;;;;;;;;1.00;99.90;;;;;;4965087;28;19926;-76
2022/01/13 08:06:43;;;;;;;;;;;1.10;99.90;;;;;;4964505;28;20104;-77
2022/01/13 08:09:10;;;;;;;;;;;0.90;99.90;;;;;;4967367;28;20045;-76
2022/01/13 08:11:38;;;;;;;;;;;1.00;99.90;;;;;;4964380;28;19932;-76
2022/01/13 08:14:04;;;;;;;;;;;0.90;99.90;;;;;;4964940;28;19962;-75
2022/01/13 08:16:35;;;;;;;;;;;1.00;99.90;;;;;;4971019;28;19934;-76
2022/01/13 08:21:46;;;;;;;;;;;0.90;99.90;;;;;;4963996;28;19932;-76
2022/01/13 08:24:13;;;;;;;;;;;1.00;99.90;;;;;;4966775;28;20013;-75
2022/01/13 08:26:40;;;;;;;;;;;1.10;99.90;;;;;;4969786;28;19927;-77
2022/01/13 08:29:06;;;;;;;;;;;1.00;99.90;;;;;;4969294;28;19995;-75
2022/01/13 08:31:34;;;;;;;;;;;1.00;99.90;;;;;;4969080;28;20025;-76
2022/01/13 08:34:01;;;;;;;;;;;1.10;99.90;;;;;;4968446;28;20390;-75
2022/01/13 08:36:28;;;;;;;;;;;1.10;99.90;;;;;;4967302;28;20013;-77
2022/01/13 08:38:54;;;;;;;;;;;1.20;99.90;;;;;;4963114;28;19926;-75
2022/01/13 08:41:21;;;;;;;;;;;1.20;99.90;;;;;;4956365;28;20292;-75
2022/01/13 08:43:51;;;;;;;;;;;1.20;99.90;;;;;;4967649;28;20577;-75
2022/01/13 08:46:18;;;;;;;;;;;1.20;99.90;;;;;;4967239;28;19966;-74
2022/01/13 08:48:46;;;;;;;;;;;1.30;99.90;;;;;;4968604;28;20286;-74
2022/01/13 08:51:17;;;;;;;;;;;1.40;99.90;;;;;;4965434;28;19927;-75
2022/01/13 08:53:44;;;;;;;;;;;1.40;99.90;;;;;;4966702;28;19941;-74
2022/01/13 08:56:10;;;;;;;;;;;1.30;99.90;;;;;;4961014;28;20121;-74
2022/01/13 08:58:37;;;;;;;;;;;1.20;99.90;;;;;;4966635;28;19926;-74
2022/01/13 09:01:04;;;;;;;;;;;1.20;99.90;;;;;;4961966;28;19949;-74
2022/01/13 09:03:30;;;;;;;;;;;1.20;99.90;;;;;;4968771;28;19926;-75
2022/01/13 09:05:59;;;;;;;;;;;1.20;99.90;;;;;;4960808;28;19930;-74
2022/01/13 09:08:25;;;;;;;;;;;1.20;99.90;;;;;;4961859;28;19933;-74
2022/01/13 09:10:52;;;;;;;;;;;1.20;99.90;;;;;;4961472;28;19926;-74
2022/01/13 09:13:19;;;;;;;;;;;1.30;99.90;;;;;;4955141;28;19934;-74
2022/01/13 09:15:50;;;;;;;;;;;1.30;99.90;;;;;;4964403;28;20021;-74
2022/01/13 09:18:19;;;;;;;;;;;1.30;99.90;;;;;;4970262;28;19949;-74
2022/01/13 09:20:47;;;;;;;;;;;1.40;99.90;;;;;;4966744;28;19927;-74
2022/01/13 09:23:15;;;;;;;;;;;1.50;99.90;;;;;;4962952;28;19927;-74
2022/01/13 09:25:41;;;;;;;;;;;1.50;99.90;;;;;;4962445;28;19988;-74
2022/01/13 09:28:09;;;;;;;;;;;1.50;99.90;;;;;;4959582;28;19927;-73
2022/01/13 09:30:35;;;;;;;;;;;1.70;99.90;;;;;;4962828;28;19984;-74
2022/01/13 09:33:02;;;;;;;;;;;1.60;99.90;;;;;;4953340;28;20009;-73
2022/01/13 09:35:29;;;;;;;;;;;1.70;99.90;;;;;;4968054;28;19932;-73
2022/01/13 09:37:56;;;;;;;;;;;1.70;99.90;;;;;;4963773;28;19927;-72
2022/01/13 09:40:24;;;;;;;;;;;1.80;99.90;;;;;;4960188;28;19927;-72
2022/01/13 09:42:51;;;;;;;;;;;1.90;99.90;;;;;;4958029;28;19993;-73
2022/01/13 09:45:18;;;;;;;;;;;1.90;99.90;;;;;;4959428;28;20472;-72
2022/01/13 09:47:45;;;;;;;;;;;2.00;99.90;;;;;;4958560;28;20399;-74
2022/01/13 09:50:13;;;;;;;;;;;2.10;99.90;;;;;;4958772;28;20269;-73
2022/01/13 09:52:40;;;;;;;;;;;2.10;99.90;;;;;;4964734;28;20005;-74
2022/01/13 09:55:08;;;;;;;;;;;2.10;99.90;;;;;;4958743;28;20632;-73
2022/01/13 09:57:36;;;;;;;;;;;2.10;99.90;;;;;;4960969;28;19976;-74
2022/01/13 10:00:04;;;;;;;;;;;2.10;99.90;;;;;;4965289;28;20407;-72
2022/01/13 10:02:30;;;;;;;;;;;2.20;99.90;;;;;;4961986;28;20381;-73
2022/01/13 10:04:57;;;;;;;;;;;2.20;99.90;;;;;;4969028;28;19926;-76
2022/01/13 10:07:30;;;;;;;;;;;2.30;99.90;;;;;;4962240;28;19927;-73
2022/01/13 10:09:58;;;;;;;;;;;2.40;99.90;;;;;;4957323;28;20009;-75
2022/01/13 10:12:26;;;;;;;;;;;2.50;99.90;;;;;;4966254;28;19926;-74
2022/01/13 10:17:45;;;;;;;;;;;2.40;99.90;;;;;;4970583;28;20085;-74
2022/01/13 10:20:11;;;;;;;;;;;2.30;99.90;;;;;;4962863;28;19934;-74
2022/01/13 10:22:38;;;;;;;;;;;2.50;99.90;;;;;;4955137;28;20461;-73
2022/01/13 10:25:05;;;;;;;;;;;2.50;99.90;;;;;;4960787;28;20374;-74
2022/01/13 10:27:33;;;;;;;;;;;2.50;99.90;;;;;;4969600;28;20037;-74
2022/01/13 10:30:02;;;;;;;;;;;2.50;99.90;;;;;;4964292;28;19933;-75
2022/01/13 10:32:36;;;;;;;;;;;2.60;99.90;;;;;;4962711;28;20681;-75
2022/01/13 10:35:04;;;;;;;;;;;2.70;99.90;;;;;;4968073;28;20280;-74
2022/01/13 10:37:33;;;;;;;;;;;2.60;99.90;;;;;;4969049;28;20373;-74
2022/01/13 10:40:02;;;;;;;;;;;2.70;99.90;;;;;;4973291;28;20013;-74
2022/01/13 10:45:28;;;;;;;;;;;2.70;99.90;;;;;;4963697;28;19926;-72
2022/01/13 10:47:55;;;;;;;;;;;2.70;99.90;;;;;;4966035;28;19977;-74
2022/01/13 10:50:23;;;;;;;;;;;2.70;99.90;;;;;;4964965;28;20285;-74
2022/01/13 10:52:50;;;;;;;;;;;2.80;99.90;;;;;;4964009;28;19934;-75
2022/01/13 10:55:19;;;;;;;;;;;2.90;99.90;;;;;;4975369;28;19934;-77
2022/01/13 10:57:46;;;;;;;;;;;3.00;99.90;;;;;;4968494;28;19973;-73
2022/01/13 11:00:19;;;;;;;;;;;2.90;99.90;;;;;;4965931;28;19930;-72
2022/01/13 11:02:59;;;;;;;;;;;2.80;99.90;;;;;;4965452;28;19932;-74
2022/01/13 11:05:26;;;;;;;;;;;2.70;99.90;;;;;;4964187;28;19932;-73
2022/01/13 11:07:52;;;;;;;;;;;2.80;99.90;;;;;;4972600;28;20423;-73
2022/01/13 11:10:19;;;;;;;;;;;2.70;99.90;;;;;;4961144;28;20312;-73
2022/01/13 11:12:54;;;;;;;;;;;2.80;99.90;;;;;;4969418;28;19933;-73
2022/01/13 11:15:21;;;;;;;;;;;2.70;99.90;;;;;;4965690;28;19933;-73
2022/01/13 11:17:49;;;;;;;;;;;2.80;99.90;;;;;;4966741;28;19925;-73
2022/01/13 11:20:17;;;;;;;;;;;2.90;99.90;;;;;;4966889;28;19926;-72
2022/01/13 11:22:44;;;;;;;;;;;3.00;99.90;;;;;;4964534;28;20395;-73
2022/01/13 11:25:12;;;;;;;;;;;3.00;99.90;;;;;;4966740;28;19934;-74
2022/01/13 11:27:39;;;;;;;;;;;3.10;99.90;;;;;;4967947;28;19935;-73
2022/01/13 11:30:08;;;;;;;;;;;3.20;99.90;;;;;;4958313;28;19935;-73
2022/01/13 11:32:34;;;;;;;;;;;3.20;99.90;;;;;;4965741;28;19926;-73
2022/01/13 11:35:03;;;;;;;;;;;3.10;99.90;;;;;;4967331;28;19930;-73
2022/01/13 11:37:30;;;;;;;;;;;3.10;99.90;;;;;;4969893;28;19927;-75
2022/01/13 11:39:58;;;;;;;;;;;3.10;99.90;;;;;;4970215;28;20445;-75
2022/01/13 11:42:25;;;;;;;;;;;3.10;99.90;;;;;;4962531;28;19952;-74
2022/01/13 11:45:06;;;;;;;;;;;3.20;99.90;;;;;;4971888;28;20384;-75
2022/01/13 11:47:33;;;;;;;;;;;3.30;99.90;;;;;;4968750;28;20299;-75
2022/01/13 11:50:15;;;;;;;;;;;3.30;99.90;;;;;;4966313;28;20024;-75
2022/01/13 11:52:43;;;;;;;;;;;3.40;99.90;;;;;;4961077;28;20061;-73
2022/01/13 11:55:20;;;;;;;;;;;3.40;99.90;;;;;;4965198;28;19984;-73
2022/01/13 11:57:47;;;;;;;;;;;3.40;99.90;;;;;;4959171;28;19926;-73
2022/01/13 12:00:22;;;;;;;;;;;3.40;99.90;;;;;;4965234;28;19961;-73
2022/01/13 12:02:48;;;;;;;;;;;3.40;99.90;;;;;;4956167;28;19972;-73
2022/01/13 12:05:17;;;;;;;;;;;3.50;99.90;;;;;;4967437;28;19972;-73
2022/01/13 12:07:45;;;;;;;;;;;3.50;99.90;;;;;;4962110;28;19927;-73
2022/01/13 12:10:33;;;;;;;;;;;3.40;99.90;;;;;;4974522;28;19979;-73
2022/01/13 12:12:59;;;;;;;;;;;3.40;99.90;;;;;;4966562;28;19926;-73
2022/01/13 12:15:27;;;;;;;;;;;3.40;99.90;;;;;;4965703;28;20389;-73
2022/01/13 12:17:57;;;;;;;;;;;3.40;99.90;;;;;;4964502;28;19926;-73
2022/01/13 12:20:26;;;;;;;;;;;3.40;99.90;;;;;;4968212;28;20029;-73
2022/01/13 12:23:04;;;;;;;;;;;3.50;99.90;;;;;;4956969;28;19972;-73
2022/01/13 12:25:32;;;;;;;;;;;3.50;99.90;;;;;;4958899;28;20025;-74
2022/01/13 12:28:00;;;;;;;;;;;3.50;99.90;;;;;;4961322;28;19926;-77
2022/01/13 12:30:28;;;;;;;;;;;3.60;99.90;;;;;;4968237;28;19932;-75
2022/01/13 12:32:55;;;;;;;;;;;3.70;99.90;;;;;;4964100;28;19933;-75
2022/01/13 12:35:41;;;;;;;;;;;3.70;99.90;;;;;;4963874;28;20024;-75
2022/01/13 12:38:09;;;;;;;;;;;3.70;99.90;;;;;;4964828;28;19932;-75
2022/01/13 12:40:41;;;;;;;;;;;3.70;99.90;;;;;;4972701;28;19927;-75
2022/01/13 12:43:21;;;;;;;;;;;3.70;99.90;;;;;;4968330;28;19926;-75
2022/01/13 12:45:48;;;;;;;;;;;3.70;99.90;;;;;;4963158;28;19927;-75
2022/01/13 12:48:14;;;;;;;;;;;3.60;99.90;;;;;;4960236;28;20013;-78
2022/01/13 12:50:43;;;;;;;;;;;3.60;99.90;;;;;;4961603;28;20017;-76
2022/01/13 12:53:12;;;;;;;;;;;3.70;99.90;;;;;;4961502;28;19976;-76
2022/01/13 12:55:40;;;;;;;;;;;3.70;99.90;;;;;;4960692;28;20019;-75
2022/01/13 12:58:07;;;;;;;;;;;3.70;99.90;;;;;;4964008;28;19988;-74
2022/01/13 13:00:34;;;;;;;;;;;3.70;99.90;;;;;;4967315;28;21623;-74
2022/01/13 13:03:06;;;;;;;;;;;3.60;99.90;;;;;;4953628;28;20323;-75
2022/01/13 13:05:39;;;;;;;;;;;3.70;99.90;;;;;;4957026;28;19934;-74
2022/01/13 13:08:08;;;;;;;;;;;3.70;99.90;;;;;;4950787;28;20389;-72
2022/01/13 13:10:35;;;;;;;;;;;3.70;99.90;;;;;;4960916;28;19932;-73
2022/01/13 13:13:02;;;;;;;;;;;3.70;99.90;;;;;;4957066;28;20025;-75
2022/01/13 13:15:44;;;;;;;;;;;3.80;99.90;;;;;;4965404;28;20025;-74
2022/01/13 13:18:11;;;;;;;;;;;3.90;99.90;;;;;;4964200;28;19927;-74
2022/01/13 13:20:38;;;;;;;;;;;3.90;99.90;;;;;;4958680;28;19933;-74
2022/01/13 13:23:07;;;;;;;;;;;3.90;99.90;;;;;;4955307;28;19933;-74
2022/01/13 13:25:36;;;;;;;;;;;3.80;99.90;;;;;;4961306;28;19926;-74
2022/01/13 13:28:23;;;;;;;;;;;3.90;99.90;;;;;;4961315;28;19934;-75
2022/01/13 13:30:50;;;;;;;;;;;3.90;99.90;;;;;;4974871;28;19937;-78
2022/01/13 13:33:18;;;;;;;;;;;4.00;99.90;;;;;;4977285;28;19983;-75
2022/01/13 13:35:45;;;;;;;;;;;4.10;99.90;;;;;;4960826;28;20564;-75
2022/01/13 13:38:12;;;;;;;;;;;4.10;99.90;;;;;;4954223;28;19930;-75
2022/01/13 13:40:46;;;;;;;;;;;4.10;99.90;;;;;;4963521;28;19978;-75
2022/01/13 13:43:13;;;;;;;;;;;4.10;99.90;;;;;;4961330;28;19925;-74
2022/01/13 13:45:40;;;;;;;;;;;4.20;99.90;;;;;;4957359;28;20297;-75
2022/01/13 13:48:07;;;;;;;;;;;4.30;99.90;;;;;;4956411;28;19933;-76
2022/01/13 13:50:34;;;;;;;;;;;4.30;99.90;;;;;;4953452;28;19926;-74
2022/01/13 13:53:04;;;;;;;;;;;4.30;99.90;;;;;;4957409;28;20020;-74
2022/01/13 13:55:32;;;;;;;;;;;4.30;99.90;;;;;;4962379;28;19956;-75
2022/01/13 13:58:00;;;;;;;;;;;4.30;99.90;;;;;;4965568;28;20400;-74
2022/01/13 14:00:27;;;;;;;;;;;4.40;99.90;;;;;;4963274;28;19933;-74
2022/01/13 14:02:55;;;;;;;;;;;4.40;99.90;;;;;;4955616;28;20421;-74
2022/01/13 14:05:26;;;;;;;;;;;4.20;99.90;;;;;;4958595;28;19926;-74
2022/01/13 14:07:53;;;;;;;;;;;4.10;99.90;;;;;;4962200;28;19926;-76
2022/01/13 14:10:22;;;;;;;;;;;4.10;99.90;;;;;;4958485;28;19933;-77
2022/01/13 14:12:50;;;;;;;;;;;4.20;99.90;;;;;;4961761;28;19976;-76
2022/01/13 14:15:22;;;;;;;;;;;4.20;99.90;;;;;;4963960;28;20385;-77
2022/01/13 14:17:54;;;;;;;;;;;4.20;99.90;;;;;;4966214;28;19926;-77
2022/01/13 14:20:21;;;;;;;;;;;4.30;99.90;;;;;;4962779;28;20062;-77
2022/01/13 14:22:55;;;;;;;;;;;4.30;99.90;;;;;;4964359;28;20028;-75
2022/01/13 14:25:21;;;;;;;;;;;4.20;99.90;;;;;;4964253;28;20520;-77
2022/01/13 14:27:52;;;;;;;;;;;4.20;99.90;;;;;;4956335;28;19927;-74
2022/01/13 14:30:29;;;;;;;;;;;4.20;99.90;;;;;;4956098;28;19930;-75
2022/01/13 14:33:18;;;;;;;;;;;4.20;99.90;;;;;;4966614;28;19937;-75
2022/01/13 14:35:46;;;;;;;;;;;4.20;99.90;;;;;;4969039;28;20021;-75
2022/01/13 14:38:14;;;;;;;;;;;4.20;99.90;;;;;;4963990;28;19926;-75
2022/01/13 14:40:44;;;;;;;;;;;4.20;99.90;;;;;;4960786;28;20265;-73
2022/01/13 14:43:18;;;;;;;;;;;4.20;99.90;;;;;;4961969;28;19962;-74
2022/01/13 14:45:46;;;;;;;;;;;4.10;99.90;;;;;;4962743;28;19936;-75
2022/01/13 14:48:13;;;;;;;;;;;4.10;99.90;;;;;;4964193;28;20041;-74
2022/01/13 14:50:40;;;;;;;;;;;4.20;99.90;;;;;;4965959;28;20278;-75